DRAGON ETNS-ZZZZ
Flight info
| Callsign | DRAGON |
|---|---|
| Flight time | N/A |
| Altitude | 2500 |
| Route | DCT NDO DCT 5332N00753E DCT |
| Aircraft | TOR/M-HITUVZ/S |
Departure
| Time | 2026-04-17 17:48 |
|---|---|
| Airport | Schleswig Air Base (ETNS) |
Arrival
| Time | N/A |
|---|---|
| Airport | ZZZZ |
| Time | Latitude | Longitude | Altitude | Speed | Heading |
|---|---|---|---|---|---|
| 2026-04-17 17:34 | 54.45800 | 9.52773 | 66 ft | 0 kts | 136° |
| 2026-04-17 17:40 | 54.45786 | 9.52798 | 66 ft | 6 kts | 135° |
| 2026-04-17 17:40 | 54.45750 | 9.52857 | 66 ft | 7 kts | 146° |
| 2026-04-17 17:41 | 54.45702 | 9.52818 | 66 ft | 10 kts | 225° |
| 2026-04-17 17:41 | 54.45643 | 9.52720 | 66 ft | 12 kts | 225° |
| 2026-04-17 17:41 | 54.45576 | 9.52605 | 66 ft | 14 kts | 225° |
| 2026-04-17 17:41 | 54.45504 | 9.52485 | 66 ft | 13 kts | 225° |
| 2026-04-17 17:42 | 54.45473 | 9.52336 | 66 ft | 15 kts | 282° |
| 2026-04-17 17:42 | 54.45509 | 9.52236 | 66 ft | 9 kts | 328° |
| 2026-04-17 17:42 | 54.45573 | 9.52193 | 66 ft | 9 kts | 342° |
| 2026-04-17 17:42 | 54.45612 | 9.52131 | 66 ft | 9 kts | 252° |
| 2026-04-17 17:43 | 54.45580 | 9.52020 | 66 ft | 11 kts | 244° |
| 2026-04-17 17:43 | 54.45545 | 9.51899 | 68 ft | 11 kts | 244° |
| 2026-04-17 17:43 | 54.45511 | 9.51777 | 69 ft | 11 kts | 244° |
| 2026-04-17 17:43 | 54.45473 | 9.51648 | 69 ft | 9 kts | 244° |
| 2026-04-17 17:44 | 54.45441 | 9.51533 | 69 ft | 11 kts | 244° |
| 2026-04-17 17:44 | 54.45399 | 9.51388 | 68 ft | 14 kts | 244° |
| 2026-04-17 17:44 | 54.45350 | 9.51220 | 69 ft | 15 kts | 244° |
| 2026-04-17 17:44 | 54.45296 | 9.51030 | 67 ft | 19 kts | 245° |
| 2026-04-17 17:45 | 54.45247 | 9.50855 | 66 ft | 9 kts | 245° |
| 2026-04-17 17:45 | 54.45217 | 9.50766 | 65 ft | 8 kts | 216° |
| 2026-04-17 17:45 | 54.45160 | 9.50727 | 66 ft | 9 kts | 202° |
| 2026-04-17 17:45 | 54.45110 | 9.50658 | 66 ft | 11 kts | 246° |
| 2026-04-17 17:46 | 54.45082 | 9.50512 | 64 ft | 14 kts | 273° |
| 2026-04-17 17:46 | 54.45112 | 9.50349 | 61 ft | 2 kts | 289° |
| 2026-04-17 17:46 | 54.45112 | 9.50347 | 61 ft | 1 kts | 289° |
| 2026-04-17 17:47 | 54.45129 | 9.50271 | 60 ft | 9 kts | 297° |
| 2026-04-17 17:47 | 54.45192 | 9.50244 | 59 ft | 10 kts | 38° |
| 2026-04-17 17:47 | 54.45308 | 9.50450 | 60 ft | 74 kts | 47° |
| 2026-04-17 17:47 | 54.45919 | 9.51610 | 69 ft | 182 kts | 48° |
| 2026-04-17 17:48 | 54.46916 | 9.53533 | 244 ft | 243 kts | 49° |
| 2026-04-17 17:48 | 54.48155 | 9.55992 | 887 ft | 290 kts | 50° |
| 2026-04-17 17:48 | 54.49462 | 9.58880 | 1308 ft | 326 kts | 57° |
| 2026-04-17 17:48 | 54.50740 | 9.62347 | 1315 ft | 350 kts | 59° |
| 2026-04-17 17:49 | 54.51958 | 9.65881 | 1262 ft | 330 kts | 60° |
| 2026-04-17 17:49 | 54.53050 | 9.69206 | 1519 ft | 311 kts | 61° |
| 2026-04-17 17:49 | 54.54170 | 9.72276 | 1626 ft | 300 kts | 50° |
| 2026-04-17 17:49 | 54.55720 | 9.74617 | 1731 ft | 291 kts | 29° |
| 2026-04-17 17:50 | 54.57619 | 9.75693 | 1803 ft | 288 kts | 5° |
| 2026-04-17 17:50 | 54.59613 | 9.75209 | 1733 ft | 299 kts | 337° |
| 2026-04-17 17:50 | 54.61427 | 9.73477 | 2118 ft | 294 kts | 329° |
| 2026-04-17 17:50 | 54.63117 | 9.71640 | 2687 ft | 291 kts | 327° |
| 2026-04-17 17:51 | 54.64816 | 9.69599 | 3147 ft | 307 kts | 317° |
| 2026-04-17 17:51 | 54.66116 | 9.66562 | 3343 ft | 328 kts | 291° |
| 2026-04-17 17:51 | 54.66550 | 9.62534 | 3436 ft | 348 kts | 266° |
| 2026-04-17 17:51 | 54.66018 | 9.58332 | 3434 ft | 368 kts | 245° |
| 2026-04-17 17:52 | 54.64673 | 9.54451 | 3429 ft | 380 kts | 234° |
| 2026-04-17 17:52 | 54.63114 | 9.50718 | 3410 ft | 383 kts | 233° |
| 2026-04-17 17:52 | 54.61530 | 9.47086 | 3410 ft | 369 kts | 232° |
| 2026-04-17 17:52 | 54.59989 | 9.43606 | 3330 ft | 360 kts | 232° |
| 2026-04-17 17:53 | 54.58471 | 9.40186 | 3175 ft | 355 kts | 233° |
| 2026-04-17 17:53 | 54.56994 | 9.36783 | 3012 ft | 351 kts | 232° |
| 2026-04-17 17:53 | 54.55516 | 9.33466 | 2904 ft | 346 kts | 232° |
| 2026-04-17 17:53 | 54.54046 | 9.30170 | 2772 ft | 342 kts | 228° |
| 2026-04-17 17:54 | 54.52411 | 9.27281 | 2825 ft | 337 kts | 221° |
| 2026-04-17 17:54 | 54.50655 | 9.24489 | 2817 ft | 341 kts | 221° |
| 2026-04-17 17:54 | 54.48934 | 9.21671 | 2784 ft | 345 kts | 223° |
| 2026-04-17 17:54 | 54.47213 | 9.18718 | 2824 ft | 347 kts | 224° |
| 2026-04-17 17:55 | 54.45482 | 9.15777 | 2817 ft | 349 kts | 223° |
| 2026-04-17 17:55 | 54.43745 | 9.12867 | 2819 ft | 350 kts | 223° |
| 2026-04-17 17:55 | 54.41996 | 9.09899 | 2831 ft | 352 kts | 223° |
| 2026-04-17 17:55 | 54.40202 | 9.06933 | 2850 ft | 352 kts | 223° |
| 2026-04-17 17:56 | 54.38415 | 9.04017 | 2855 ft | 353 kts | 222° |
| 2026-04-17 17:56 | 54.36629 | 9.01141 | 2872 ft | 354 kts | 222° |
| 2026-04-17 17:56 | 54.34821 | 8.98277 | 2921 ft | 353 kts | 221° |
| 2026-04-17 17:56 | 54.32978 | 8.95490 | 2968 ft | 352 kts | 219° |
| 2026-04-17 17:57 | 54.31083 | 8.92875 | 3025 ft | 351 kts | 217° |
| 2026-04-17 17:57 | 54.29144 | 8.90306 | 3116 ft | 349 kts | 217° |
| 2026-04-17 17:57 | 54.27214 | 8.87778 | 3158 ft | 349 kts | 216° |
| 2026-04-17 17:57 | 54.25282 | 8.85246 | 3134 ft | 351 kts | 216° |
| 2026-04-17 17:58 | 54.23315 | 8.82711 | 3067 ft | 354 kts | 216° |
| 2026-04-17 17:58 | 54.21349 | 8.80233 | 3108 ft | 353 kts | 215° |
| 2026-04-17 17:58 | 54.19326 | 8.77743 | 3135 ft | 353 kts | 216° |
| 2026-04-17 17:58 | 54.17348 | 8.75253 | 3133 ft | 353 kts | 213° |
| 2026-04-17 17:59 | 54.15259 | 8.72974 | 3125 ft | 353 kts | 210° |
| 2026-04-17 17:59 | 54.13146 | 8.70780 | 3187 ft | 352 kts | 212° |
| 2026-04-17 17:59 | 54.11029 | 8.68602 | 3231 ft | 351 kts | 208° |
| 2026-04-17 17:59 | 54.08870 | 8.66651 | 3230 ft | 351 kts | 205° |
| 2026-04-17 18:00 | 54.06687 | 8.64868 | 3242 ft | 351 kts | 205° |
| 2026-04-17 18:00 | 54.04473 | 8.63017 | 3278 ft | 351 kts | 204° |
| 2026-04-17 18:00 | 54.02206 | 8.61346 | 3260 ft | 352 kts | 201° |
| 2026-04-17 18:00 | 53.99943 | 8.59736 | 3160 ft | 351 kts | 204° |
| 2026-04-17 18:01 | 53.97759 | 8.57831 | 3042 ft | 351 kts | 209° |
| 2026-04-17 18:01 | 53.95623 | 8.55884 | 2882 ft | 352 kts | 206° |
| 2026-04-17 18:01 | 53.93415 | 8.54033 | 2791 ft | 350 kts | 207° |
| 2026-04-17 18:01 | 53.91328 | 8.51886 | 2726 ft | 349 kts | 213° |
| 2026-04-17 18:02 | 53.89366 | 8.49507 | 2749 ft | 346 kts | 220° |
| 2026-04-17 18:02 | 53.87701 | 8.46576 | 2792 ft | 343 kts | 228° |
| 2026-04-17 18:02 | 53.86145 | 8.43485 | 2825 ft | 341 kts | 230° |
| 2026-04-17 18:02 | 53.84691 | 8.40290 | 2800 ft | 341 kts | 232° |
| 2026-04-17 18:03 | 53.83257 | 8.37062 | 2733 ft | 342 kts | 232° |
| 2026-04-17 18:03 | 53.81751 | 8.33853 | 2673 ft | 342 kts | 230° |
| 2026-04-17 18:03 | 53.80302 | 8.30700 | 2661 ft | 342 kts | 230° |
| 2026-04-17 18:03 | 53.78804 | 8.27521 | 2656 ft | 341 kts | 228° |
| 2026-04-17 18:04 | 53.77244 | 8.24489 | 2599 ft | 341 kts | 227° |
| 2026-04-17 18:04 | 53.75719 | 8.21367 | 2550 ft | 342 kts | 232° |
| 2026-04-17 18:04 | 53.74271 | 8.18174 | 2550 ft | 341 kts | 231° |
| 2026-04-17 18:04 | 53.72848 | 8.14938 | 2560 ft | 339 kts | 232° |
| 2026-04-17 18:05 | 53.71486 | 8.11719 | 2580 ft | 339 kts | 234° |
| 2026-04-17 18:05 | 53.70227 | 8.08291 | 2501 ft | 341 kts | 240° |
| 2026-04-17 18:05 | 53.69109 | 8.04760 | 2511 ft | 340 kts | 242° |
| 2026-04-17 18:05 | 53.68039 | 8.01177 | 2517 ft | 340 kts | 242° |
| 2026-04-17 18:06 | 53.66858 | 7.97791 | 2671 ft | 331 kts | 228° |
| 2026-04-17 18:06 | 53.65195 | 7.95155 | 2566 ft | 325 kts | 218° |
| 2026-04-17 18:06 | 53.63442 | 7.92865 | 2509 ft | 312 kts | 214° |
| 2026-04-17 18:06 | 53.61676 | 7.90961 | 2644 ft | 295 kts | 205° |
| 2026-04-17 18:07 | 53.59760 | 7.89814 | 2560 ft | 286 kts | 192° |
| 2026-04-17 18:07 | 53.57843 | 7.89147 | 2454 ft | 280 kts | 190° |
| 2026-04-17 18:07 | 53.55970 | 7.88611 | 2365 ft | 270 kts | 188° |
| 2026-04-17 18:07 | 53.54123 | 7.88181 | 2307 ft | 259 kts | 187° |
| 2026-04-17 18:08 | 53.52392 | 7.87846 | 2238 ft | 248 kts | 186° |
| 2026-04-17 18:08 | 53.50670 | 7.87434 | 1999 ft | 251 kts | 189° |
| 2026-04-17 18:08 | 53.49049 | 7.86526 | 1921 ft | 241 kts | 215° |
| 2026-04-17 18:08 | 53.47988 | 7.84421 | 1739 ft | 238 kts | 243° |
| 2026-04-17 18:09 | 53.47250 | 7.81946 | 1588 ft | 240 kts | 244° |
| 2026-04-17 18:09 | 53.46617 | 7.79367 | 1539 ft | 237 kts | 260° |
| 2026-04-17 18:09 | 53.46686 | 7.76662 | 1557 ft | 229 kts | 291° |
| 2026-04-17 18:09 | 53.47541 | 7.74469 | 1483 ft | 226 kts | 322° |
| 2026-04-17 18:10 | 53.48917 | 7.73214 | 1349 ft | 225 kts | 349° |
| 2026-04-17 18:10 | 53.50489 | 7.72968 | 1382 ft | 234 kts | 1° |
| 2026-04-17 18:10 | 53.52156 | 7.73235 | 1455 ft | 244 kts | 19° |
| 2026-04-17 18:10 | 53.53680 | 7.74637 | 1510 ft | 261 kts | 45° |
| 2026-04-17 18:11 | 53.54501 | 7.77420 | 1440 ft | 276 kts | 86° |
| 2026-04-17 18:11 | 53.54376 | 7.80674 | 1324 ft | 283 kts | 104° |
| 2026-04-17 18:11 | 53.53880 | 7.83805 | 1245 ft | 269 kts | 101° |
| 2026-04-17 18:11 | 53.53547 | 7.86723 | 1131 ft | 244 kts | 99° |
| 2026-04-17 18:12 | 53.53598 | 7.89360 | 1225 ft | 215 kts | 60° |
| 2026-04-17 18:12 | 53.54671 | 7.91150 | 1279 ft | 234 kts | 16° |
| 2026-04-17 18:12 | 53.56286 | 7.90921 | 1406 ft | 243 kts | 326° |
| 2026-04-17 18:12 | 53.57261 | 7.88632 | 1626 ft | 257 kts | 284° |
| 2026-04-17 18:13 | 53.57383 | 7.85590 | 1072 ft | 258 kts | 262° |
| 2026-04-17 18:13 | 53.56870 | 7.83073 | 955 ft | 205 kts | 230° |
| 2026-04-17 18:13 | 53.55747 | 7.81637 | 1000 ft | 208 kts | 205° |
| 2026-04-17 18:13 | 53.54339 | 7.81417 | 894 ft | 210 kts | 160° |
| 2026-04-17 18:14 | 53.53542 | 7.83159 | 851 ft | 216 kts | 83° |
| 2026-04-17 18:14 | 53.53666 | 7.85889 | 396 ft | 234 kts | 96° |
| 2026-04-17 18:14 | 53.53416 | 7.88323 | 19 ft | 181 kts | 101° |
| 2026-04-17 18:14 | 53.53267 | 7.89504 | 23 ft | 32 kts | 94° |
| 2026-04-17 18:15 | 53.53262 | 7.89580 | 22 ft | 3 kts | 98° |
| 2026-04-17 18:15 | 53.53260 | 7.89649 | 22 ft | 8 kts | 69° |
| 2026-04-17 18:15 | 53.53319 | 7.89680 | 23 ft | 11 kts | 347° |
| 2026-04-17 18:15 | 53.53398 | 7.89636 | 24 ft | 9 kts | 343° |
| 2026-04-17 18:16 | 53.53439 | 7.89559 | 25 ft | 9 kts | 281° |
| 2026-04-17 18:16 | 53.53454 | 7.89439 | 26 ft | 11 kts | 282° |
| 2026-04-17 18:16 | 53.53471 | 7.89302 | 27 ft | 11 kts | 282° |
| 2026-04-17 18:16 | 53.53488 | 7.89167 | 29 ft | 11 kts | 282° |
| 2026-04-17 18:17 | 53.53508 | 7.89003 | 27 ft | 16 kts | 282° |
| 2026-04-17 18:17 | 53.53563 | 7.88857 | 25 ft | 0 kts | 247° |